Antwerp, New York
Current Conditions -  °F | °C
As of 4:58 PM on Thursday 23 Oct 2014 (Local Time) from KGTB Reporting Station
Drizzle Drizzle  
Wind Chill: 42°   Ceiling: 1800
Heat Index: 48°   Visibility: 10mi
Dew Point: 41°   Wind: 15mph
Humidity: 77%   Direction: 20°NNE
Pressure: 29.95"   Gusts: 21mph
Location:  44.2°N, 75.61°W
Report Text: KGTB 232058Z AUTO 02013G18KT 10SM -DZ OVC018 09/05 A2995 RMK AO2 RAB1959E2000DZE2016B2037 SLP147 P0000 60000 T00880050 58001
Loading
Personal Weather Stations






























Interactive Weather Map
Tropical Storm Tracking
New forecast layout! Learn more

10-Day Weather Forecast

Advertisements
Track Severe Weather on mobile